sensor_id;sensor_type;location;lat;lon;timestamp;pressure;altitude;pressure_sealevel;temperature;humidity
23016;BME280;11674;52.428;13.584;2023-06-14T00:01:57;101499.94;;;16.24;47.17
23016;BME280;11674;52.428;13.584;2023-06-14T00:07:04;101502.53;;;16.07;48.03
23016;BME280;11674;52.428;13.584;2023-06-14T00:12:12;101510.59;;;15.95;48.65
23016;BME280;11674;52.428;13.584;2023-06-14T00:17:19;101508.19;;;15.88;48.97
23016;BME280;11674;52.428;13.584;2023-06-14T00:22:26;101515.81;;;15.83;49.33
23016;BME280;11674;52.428;13.584;2023-06-14T00:27:33;101513.75;;;15.75;49.86
23016;BME280;11674;52.428;13.584;2023-06-14T00:32:40;101513.84;;;15.70;49.81
23016;BME280;11674;52.428;13.584;2023-06-14T00:37:47;101514.34;;;15.72;49.66
23016;BME280;11674;52.428;13.584;2023-06-14T00:42:54;101509.81;;;15.76;49.49
23016;BME280;11674;52.428;13.584;2023-06-14T00:48:02;101510.31;;;15.78;49.53
23016;BME280;11674;52.428;13.584;2023-06-14T00:53:09;101506.78;;;15.72;50.07
23016;BME280;11674;52.428;13.584;2023-06-14T00:58:16;101502.22;;;15.63;50.60
23016;BME280;11674;52.428;13.584;2023-06-14T01:03:24;101503.97;;;15.59;50.97
23016;BME280;11674;52.428;13.584;2023-06-14T01:08:51;101504.03;;;15.54;51.67
23016;BME280;11674;52.428;13.584;2023-06-14T01:14:04;101505.78;;;15.50;52.02
23016;BME280;11674;52.428;13.584;2023-06-14T01:19:12;101502.47;;;15.48;52.20
23016;BME280;11674;52.428;13.584;2023-06-14T01:24:19;101509.78;;;15.44;52.37
23016;BME280;11674;52.428;13.584;2023-06-14T01:29:26;101503.34;;;15.43;52.50
23016;BME280;11674;52.428;13.584;2023-06-14T01:34:34;101499.19;;;15.41;52.57
23016;BME280;11674;52.428;13.584;2023-06-14T01:39:43;101497.38;;;15.31;53.09
23016;BME280;11674;52.428;13.584;2023-06-14T01:44:53;101499.91;;;15.33;53.25
23016;BME280;11674;52.428;13.584;2023-06-14T01:50:09;101513.88;;;15.33;53.53
23016;BME280;11674;52.428;13.584;2023-06-14T01:55:16;101513.94;;;15.28;53.38
23016;BME280;11674;52.428;13.584;2023-06-14T02:00:23;101511.59;;;15.16;54.37
23016;BME280;11674;52.428;13.584;2023-06-14T02:05:30;101511.50;;;15.03;54.63
23016;BME280;11674;52.428;13.584;2023-06-14T02:10:39;101517.56;;;14.91;54.78
23016;BME280;11674;52.428;13.584;2023-06-14T02:15:46;101516.88;;;14.81;55.15
23016;BME280;11674;52.428;13.584;2023-06-14T02:20:53;101509.75;;;14.70;55.17
23016;BME280;11674;52.428;13.584;2023-06-14T02:26:00;101527.72;;;14.64;55.63
23016;BME280;11674;52.428;13.584;2023-06-14T02:31:08;101528.38;;;14.56;55.63
23016;BME280;11674;52.428;13.584;2023-06-14T02:36:15;101523.38;;;14.53;55.89
23016;BME280;11674;52.428;13.584;2023-06-14T02:41:22;101522.91;;;14.46;56.37
23016;BME280;11674;52.428;13.584;2023-06-14T02:46:29;101533.25;;;14.45;56.07
23016;BME280;11674;52.428;13.584;2023-06-14T02:51:36;101530.22;;;14.42;56.31
23016;BME280;11674;52.428;13.584;2023-06-14T02:56:43;101529.13;;;14.38;56.80
23016;BME280;11674;52.428;13.584;2023-06-14T03:01:51;101524.97;;;14.35;57.26
23016;BME280;11674;52.428;13.584;2023-06-14T03:06:58;101534.78;;;14.33;57.36
23016;BME280;11674;52.428;13.584;2023-06-14T03:12:06;101516.09;;;14.33;57.61
23016;BME280;11674;52.428;13.584;2023-06-14T03:17:13;101524.47;;;14.33;57.62
23016;BME280;11674;52.428;13.584;2023-06-14T03:22:21;101520.78;;;14.38;57.63
23016;BME280;11674;52.428;13.584;2023-06-14T03:27:28;101526.91;;;14.40;57.96
23016;BME280;11674;52.428;13.584;2023-06-14T03:32:35;101532.09;;;14.46;57.96
23016;BME280;11674;52.428;13.584;2023-06-14T03:37:44;101527.88;;;14.49;57.84
23016;BME280;11674;52.428;13.584;2023-06-14T03:42:51;101538.19;;;14.53;57.76
23016;BME280;11674;52.428;13.584;2023-06-14T03:47:58;101533.00;;;14.65;57.92
23016;BME280;11674;52.428;13.584;2023-06-14T03:53:06;101533.28;;;15.24;57.91
23016;BME280;11674;52.428;13.584;2023-06-14T03:58:16;101528.22;;;16.09;57.69
23016;BME280;11674;52.428;13.584;2023-06-14T04:03:24;101549.34;;;16.87;56.83
23016;BME280;11674;52.428;13.584;2023-06-14T04:08:32;101556.81;;;17.76;56.20
23016;BME280;11674;52.428;13.584;2023-06-14T04:13:39;101555.34;;;18.31;55.88
23016;BME280;11674;52.428;13.584;2023-06-14T04:18:46;101554.72;;;18.73;55.18
23016;BME280;11674;52.428;13.584;2023-06-14T04:23:53;101545.09;;;19.13;54.61
23016;BME280;11674;52.428;13.584;2023-06-14T04:29:03;101539.03;;;19.37;54.24
23016;BME280;11674;52.428;13.584;2023-06-14T04:34:15;101536.88;;;19.68;53.68
23016;BME280;11674;52.428;13.584;2023-06-14T04:39:27;101537.50;;;20.16;52.68
23016;BME280;11674;52.428;13.584;2023-06-14T04:44:36;101552.69;;;20.23;52.55
23016;BME280;11674;52.428;13.584;2023-06-14T04:49:44;101553.09;;;20.13;51.66
23016;BME280;11674;52.428;13.584;2023-06-14T04:54:51;101551.28;;;19.66;51.73
23016;BME280;11674;52.428;13.584;2023-06-14T04:59:58;101551.78;;;19.43;51.45
23016;BME280;11674;52.428;13.584;2023-06-14T05:05:06;101559.16;;;18.66;52.13
23016;BME280;11674;52.428;13.584;2023-06-14T05:10:14;101561.25;;;18.21;52.23
23016;BME280;11674;52.428;13.584;2023-06-14T05:15:21;101562.09;;;18.00;52.57
23016;BME280;11674;52.428;13.584;2023-06-14T05:20:28;101563.25;;;17.99;52.36
23016;BME280;11674;52.428;13.584;2023-06-14T05:25:35;101564.78;;;17.83;52.84
23016;BME280;11674;52.428;13.584;2023-06-14T05:30:42;101576.84;;;17.83;52.71
23016;BME280;11674;52.428;13.584;2023-06-14T05:35:49;101587.00;;;17.71;52.91
23016;BME280;11674;52.428;13.584;2023-06-14T05:40:56;101579.00;;;17.64;53.18
23016;BME280;11674;52.428;13.584;2023-06-14T05:46:03;101580.66;;;17.65;53.24
23016;BME280;11674;52.428;13.584;2023-06-14T05:51:10;101586.91;;;17.62;53.21
23016;BME280;11674;52.428;13.584;2023-06-14T05:56:17;101591.22;;;17.60;53.69
23016;BME280;11674;52.428;13.584;2023-06-14T06:01:24;101592.97;;;17.56;53.66
23016;BME280;11674;52.428;13.584;2023-06-14T06:06:31;101594.75;;;17.52;53.80
23016;BME280;11674;52.428;13.584;2023-06-14T06:11:38;101595.13;;;17.59;53.80
23016;BME280;11674;52.428;13.584;2023-06-14T06:16:45;101595.09;;;17.72;54.05
23016;BME280;11674;52.428;13.584;2023-06-14T06:21:52;101593.44;;;17.71;53.86
23016;BME280;11674;52.428;13.584;2023-06-14T06:26:59;101586.16;;;17.70;54.04
23016;BME280;11674;52.428;13.584;2023-06-14T06:32:06;101582.72;;;17.73;53.90
23016;BME280;11674;52.428;13.584;2023-06-14T06:37:13;101597.66;;;17.82;53.97
23016;BME280;11674;52.428;13.584;2023-06-14T06:42:20;101599.06;;;17.93;53.86
23016;BME280;11674;52.428;13.584;2023-06-14T06:47:30;101599.13;;;18.24;53.97
23016;BME280;11674;52.428;13.584;2023-06-14T06:52:37;101605.06;;;18.44;53.81
23016;BME280;11674;52.428;13.584;2023-06-14T06:57:44;101606.47;;;18.64;53.80
23016;BME280;11674;52.428;13.584;2023-06-14T07:02:51;101606.03;;;18.79;53.75
23016;BME280;11674;52.428;13.584;2023-06-14T07:07:58;101611.91;;;18.99;53.42
23016;BME280;11674;52.428;13.584;2023-06-14T07:13:05;101616.28;;;19.22;53.20
23016;BME280;11674;52.428;13.584;2023-06-14T07:18:12;101628.94;;;19.42;52.91
23016;BME280;11674;52.428;13.584;2023-06-14T07:23:20;101624.34;;;19.63;52.92
23016;BME280;11674;52.428;13.584;2023-06-14T07:28:27;101626.31;;;19.79;52.34
23016;BME280;11674;52.428;13.584;2023-06-14T07:33:34;101624.50;;;19.83;51.98
23016;BME280;11674;52.428;13.584;2023-06-14T07:38:41;101624.03;;;19.90;51.74
23016;BME280;11674;52.428;13.584;2023-06-14T07:43:48;101631.31;;;19.91;51.77
23016;BME280;11674;52.428;13.584;2023-06-14T07:48:55;101630.81;;;19.97;51.67
23016;BME280;11674;52.428;13.584;2023-06-14T07:54:02;101622.34;;;20.06;51.46
23016;BME280;11674;52.428;13.584;2023-06-14T07:59:09;101615.56;;;20.24;51.39
23016;BME280;11674;52.428;13.584;2023-06-14T08:04:16;101612.22;;;20.39;50.79
23016;BME280;11674;52.428;13.584;2023-06-14T08:09:23;101613.03;;;20.39;51.05
23016;BME280;11674;52.428;13.584;2023-06-14T08:14:30;101613.84;;;20.48;50.42
23016;BME280;11674;52.428;13.584;2023-06-14T08:19:37;101613.03;;;20.94;50.42
23016;BME280;11674;52.428;13.584;2023-06-14T08:24:44;101608.81;;;21.08;49.91
23016;BME280;11674;52.428;13.584;2023-06-14T08:29:51;101602.22;;;21.04;49.80
23016;BME280;11674;52.428;13.584;2023-06-14T08:34:58;101604.38;;;20.99;49.72
23016;BME280;11674;52.428;13.584;2023-06-14T08:40:12;101618.97;;;21.01;49.26
23016;BME280;11674;52.428;13.584;2023-06-14T08:45:24;101617.06;;;21.13;48.99
23016;BME280;11674;52.428;13.584;2023-06-14T08:50:32;101610.31;;;21.35;48.77
23016;BME280;11674;52.428;13.584;2023-06-14T08:55:39;101610.78;;;21.37;48.41
23016;BME280;11674;52.428;13.584;2023-06-14T09:00:46;101611.31;;;21.39;48.19
23016;BME280;11674;52.428;13.584;2023-06-14T09:05:53;101620.06;;;21.66;48.05
23016;BME280;11674;52.428;13.584;2023-06-14T09:11:01;101612.47;;;22.20;47.79
23016;BME280;11674;52.428;13.584;2023-06-14T09:16:09;101612.31;;;22.37;46.92
23016;BME280;11674;52.428;13.584;2023-06-14T09:21:17;101618.03;;;22.61;46.62
23016;BME280;11674;52.428;13.584;2023-06-14T09:26:24;101617.03;;;22.77;46.19
23016;BME280;11674;52.428;13.584;2023-06-14T09:31:31;101621.53;;;23.02;46.25
23016;BME280;11674;52.428;13.584;2023-06-14T09:36:39;101618.44;;;22.95;45.17
23016;BME280;11674;52.428;13.584;2023-06-14T09:41:46;101615.84;;;22.90;45.32
23016;BME280;11674;52.428;13.584;2023-06-14T09:46:53;101623.06;;;23.00;45.14
23016;BME280;11674;52.428;13.584;2023-06-14T09:52:03;101612.81;;;23.07;44.98
23016;BME280;11674;52.428;13.584;2023-06-14T09:57:11;101608.19;;;23.03;45.07
23016;BME280;11674;52.428;13.584;2023-06-14T10:02:54;101607.28;;;22.99;44.84
23016;BME280;11674;52.428;13.584;2023-06-14T10:08:13;101607.84;;;22.92;44.53
23016;BME280;11674;52.428;13.584;2023-06-14T10:13:20;101615.38;;;23.00;44.51
23016;BME280;11674;52.428;13.584;2023-06-14T10:19:01;101614.69;;;23.03;43.92
23016;BME280;11674;52.428;13.584;2023-06-14T10:24:13;101612.44;;;23.09;43.53
23016;BME280;11674;52.428;13.584;2023-06-14T10:29:22;101611.13;;;22.94;43.11
23016;BME280;11674;52.428;13.584;2023-06-14T10:34:30;101603.84;;;22.81;43.27
23016;BME280;11674;52.428;13.584;2023-06-14T10:39:41;101609.94;;;22.83;43.15
23016;BME280;11674;52.428;13.584;2023-06-14T10:44:56;101600.06;;;23.01;43.04
23016;BME280;11674;52.428;13.584;2023-06-14T10:50:08;101607.63;;;23.09;43.27
23016;BME280;11674;52.428;13.584;2023-06-14T10:55:18;101600.06;;;23.37;43.14
23016;BME280;11674;52.428;13.584;2023-06-14T11:00:27;101592.03;;;23.51;42.63
23016;BME280;11674;52.428;13.584;2023-06-14T11:10:58;101567.34;;;24.03;42.45
23016;BME280;11674;52.428;13.584;2023-06-14T11:16:13;101566.66;;;24.37;42.01
23016;BME280;11674;52.428;13.584;2023-06-14T11:21:20;101566.66;;;24.65;41.81
23016;BME280;11674;52.428;13.584;2023-06-14T11:26:31;101555.72;;;24.51;41.75
23016;BME280;11674;52.428;13.584;2023-06-14T11:31:43;101557.22;;;24.18;41.52
23016;BME280;11674;52.428;13.584;2023-06-14T11:36:50;101545.75;;;24.14;41.61
23016;BME280;11674;52.428;13.584;2023-06-14T11:41:57;101541.75;;;24.31;41.57
23016;BME280;11674;52.428;13.584;2023-06-14T11:47:04;101539.16;;;24.69;41.15
23016;BME280;11674;52.428;13.584;2023-06-14T11:52:11;101531.44;;;25.00;40.63
23016;BME280;11674;52.428;13.584;2023-06-14T11:57:18;101521.56;;;24.94;40.15
23016;BME280;11674;52.428;13.584;2023-06-14T12:02:25;101521.47;;;24.91;39.83
23016;BME280;11674;52.428;13.584;2023-06-14T12:07:32;101513.88;;;25.45;39.45
23016;BME280;11674;52.428;13.584;2023-06-14T12:12:39;101515.06;;;26.20;39.22
23016;BME280;11674;52.428;13.584;2023-06-14T12:17:46;101497.16;;;26.42;38.46
23016;BME280;11674;52.428;13.584;2023-06-14T12:22:56;101494.09;;;26.99;38.04
23016;BME280;11674;52.428;13.584;2023-06-14T12:28:08;101489.25;;;27.03;37.90
23016;BME280;11674;52.428;13.584;2023-06-14T12:33:22;101477.81;;;27.25;37.82
23016;BME280;11674;52.428;13.584;2023-06-14T12:38:29;101483.56;;;27.58;37.40
23016;BME280;11674;52.428;13.584;2023-06-14T12:43:36;101484.38;;;28.25;36.68
23016;BME280;11674;52.428;13.584;2023-06-14T12:48:43;101471.53;;;28.92;35.59
23016;BME280;11674;52.428;13.584;2023-06-14T12:53:50;101475.41;;;29.17;34.88
23016;BME280;11674;52.428;13.584;2023-06-14T12:58:58;101462.25;;;29.02;34.50
23016;BME280;11674;52.428;13.584;2023-06-14T13:04:04;101462.81;;;29.28;33.83
23016;BME280;11674;52.428;13.584;2023-06-14T13:09:11;101466.38;;;29.08;33.09
23016;BME280;11674;52.428;13.584;2023-06-14T13:14:18;101455.47;;;28.70;33.23
23016;BME280;11674;52.428;13.584;2023-06-14T13:19:25;101450.66;;;28.84;32.86
23016;BME280;11674;52.428;13.584;2023-06-14T13:24:32;101441.16;;;29.31;32.45
23016;BME280;11674;52.428;13.584;2023-06-14T13:29:40;101436.22;;;29.21;31.86
23016;BME280;11674;52.428;13.584;2023-06-14T13:34:46;101428.06;;;29.23;31.83
23016;BME280;11674;52.428;13.584;2023-06-14T13:39:53;101418.44;;;29.59;30.94
23016;BME280;11674;52.428;13.584;2023-06-14T13:45:00;101426.69;;;29.71;31.17
23016;BME280;11674;52.428;13.584;2023-06-14T13:50:07;101413.69;;;30.15;30.45
23016;BME280;11674;52.428;13.584;2023-06-14T13:55:14;101414.09;;;30.52;29.99
23016;BME280;11674;52.428;13.584;2023-06-14T14:00:21;101406.34;;;30.32;29.81
23016;BME280;11674;52.428;13.584;2023-06-14T14:05:28;101409.53;;;29.88;30.08
23016;BME280;11674;52.428;13.584;2023-06-14T14:10:35;101414.19;;;29.25;30.48
23016;BME280;11674;52.428;13.584;2023-06-14T14:15:42;101406.75;;;29.10;30.04
23016;BME280;11674;52.428;13.584;2023-06-14T14:20:49;101408.16;;;28.76;29.85
23016;BME280;11674;52.428;13.584;2023-06-14T14:25:56;101405.63;;;28.67;29.98
23016;BME280;11674;52.428;13.584;2023-06-14T14:31:03;101409.66;;;28.59;29.93
23016;BME280;11674;52.428;13.584;2023-06-14T14:36:10;101391.88;;;28.83;29.56
23016;BME280;11674;52.428;13.584;2023-06-14T14:41:17;101395.75;;;28.58;29.75
23016;BME280;11674;52.428;13.584;2023-06-14T14:46:24;101392.22;;;28.75;29.77
23016;BME280;11674;52.428;13.584;2023-06-14T14:51:31;101394.19;;;29.32;29.40
23016;BME280;11674;52.428;13.584;2023-06-14T14:56:38;101383.41;;;30.18;28.67
23016;BME280;11674;52.428;13.584;2023-06-14T15:01:45;101395.69;;;30.46;28.33
23016;BME280;11674;52.428;13.584;2023-06-14T15:06:52;101393.25;;;30.41;28.32
23016;BME280;11674;52.428;13.584;2023-06-14T15:11:59;101405.47;;;29.93;28.44
23016;BME280;11674;52.428;13.584;2023-06-14T15:17:06;101392.25;;;29.53;28.63
23016;BME280;11674;52.428;13.584;2023-06-14T15:22:14;101383.50;;;29.15;28.39
23016;BME280;11674;52.428;13.584;2023-06-14T15:27:21;101397.34;;;28.52;28.45
23016;BME280;11674;52.428;13.584;2023-06-14T15:32:28;101391.88;;;27.93;28.69
23016;BME280;11674;52.428;13.584;2023-06-14T15:37:35;101394.41;;;27.65;28.42
23016;BME280;11674;52.428;13.584;2023-06-14T15:42:42;101400.03;;;27.25;28.31
23016;BME280;11674;52.428;13.584;2023-06-14T15:47:49;101398.13;;;27.06;28.52
23016;BME280;11674;52.428;13.584;2023-06-14T15:52:56;101405.84;;;26.54;28.82
23016;BME280;11674;52.428;13.584;2023-06-14T15:58:03;101400.00;;;25.98;29.54
23016;BME280;11674;52.428;13.584;2023-06-14T16:03:10;101404.16;;;25.63;29.76
23016;BME280;11674;52.428;13.584;2023-06-14T16:08:17;101396.50;;;25.44;30.07
23016;BME280;11674;52.428;13.584;2023-06-14T16:13:24;101392.84;;;25.44;30.37
23016;BME280;11674;52.428;13.584;2023-06-14T16:18:31;101398.19;;;25.49;30.30
23016;BME280;11674;52.428;13.584;2023-06-14T16:23:38;101399.25;;;25.41;30.44
23016;BME280;11674;52.428;13.584;2023-06-14T16:28:45;101398.59;;;25.47;30.49
23016;BME280;11674;52.428;13.584;2023-06-14T16:33:53;101394.53;;;25.90;30.54
23016;BME280;11674;52.428;13.584;2023-06-14T16:38:59;101405.13;;;26.12;30.04
23016;BME280;11674;52.428;13.584;2023-06-14T16:44:06;101414.56;;;26.16;30.14
23016;BME280;11674;52.428;13.584;2023-06-14T16:49:13;101414.03;;;26.10;30.23
23016;BME280;11674;52.428;13.584;2023-06-14T16:54:20;101416.13;;;25.72;30.50
23016;BME280;11674;52.428;13.584;2023-06-14T16:59:27;101416.47;;;25.29;30.96
23016;BME280;11674;52.428;13.584;2023-06-14T17:04:34;101417.47;;;25.02;31.08
23016;BME280;11674;52.428;13.584;2023-06-14T17:09:41;101428.94;;;24.90;31.11
23016;BME280;11674;52.428;13.584;2023-06-14T17:14:48;101422.47;;;24.74;31.22
23016;BME280;11674;52.428;13.584;2023-06-14T17:19:55;101434.72;;;24.59;31.34
23016;BME280;11674;52.428;13.584;2023-06-14T17:25:02;101435.16;;;24.45;31.66
23016;BME280;11674;52.428;13.584;2023-06-14T17:30:10;101428.25;;;24.31;32.19
23016;BME280;11674;52.428;13.584;2023-06-14T17:35:17;101444.47;;;24.15;32.05
23016;BME280;11674;52.428;13.584;2023-06-14T17:40:24;101453.50;;;24.05;32.55
23016;BME280;11674;52.428;13.584;2023-06-14T17:45:31;101446.00;;;23.97;32.73
23016;BME280;11674;52.428;13.584;2023-06-14T17:50:38;101457.25;;;23.93;32.71
23016;BME280;11674;52.428;13.584;2023-06-14T17:55:45;101443.56;;;23.83;32.74
23016;BME280;11674;52.428;13.584;2023-06-14T18:00:52;101449.50;;;23.78;33.09
23016;BME280;11674;52.428;13.584;2023-06-14T18:05:59;101466.69;;;23.70;32.82
23016;BME280;11674;52.428;13.584;2023-06-14T18:11:06;101458.78;;;23.63;33.14
23016;BME280;11674;52.428;13.584;2023-06-14T18:16:13;101458.34;;;23.61;33.28
23016;BME280;11674;52.428;13.584;2023-06-14T18:21:20;101453.38;;;23.58;33.54
23016;BME280;11674;52.428;13.584;2023-06-14T18:26:27;101461.53;;;23.60;33.45
23016;BME280;11674;52.428;13.584;2023-06-14T18:31:34;101462.72;;;23.59;33.82
23016;BME280;11674;52.428;13.584;2023-06-14T18:36:41;101461.06;;;23.58;33.84
23016;BME280;11674;52.428;13.584;2023-06-14T18:41:48;101456.03;;;23.51;34.00
23016;BME280;11674;52.428;13.584;2023-06-14T18:46:55;101454.94;;;23.56;34.08
23016;BME280;11674;52.428;13.584;2023-06-14T18:52:02;101459.69;;;23.52;34.22
23016;BME280;11674;52.428;13.584;2023-06-14T18:57:09;101453.34;;;23.43;34.25
23016;BME280;11674;52.428;13.584;2023-06-14T19:02:16;101455.59;;;23.37;34.74
23016;BME280;11674;52.428;13.584;2023-06-14T19:07:27;101457.97;;;23.35;34.61
23016;BME280;11674;52.428;13.584;2023-06-14T19:12:34;101460.22;;;23.30;34.57
23016;BME280;11674;52.428;13.584;2023-06-14T19:17:41;101460.13;;;23.26;34.88
23016;BME280;11674;52.428;13.584;2023-06-14T19:22:48;101466.03;;;23.21;35.17
23016;BME280;11674;52.428;13.584;2023-06-14T19:27:55;101468.50;;;23.11;35.20
23016;BME280;11674;52.428;13.584;2023-06-14T19:33:02;101472.66;;;23.01;35.66
23016;BME280;11674;52.428;13.584;2023-06-14T19:38:09;101469.84;;;23.01;35.39
23016;BME280;11674;52.428;13.584;2023-06-14T19:43:16;101476.09;;;22.95;35.67
23016;BME280;11674;52.428;13.584;2023-06-14T19:48:23;101480.81;;;22.91;35.64
23016;BME280;11674;52.428;13.584;2023-06-14T19:53:30;101481.03;;;22.86;35.75
23016;BME280;11674;52.428;13.584;2023-06-14T19:58:47;101479.63;;;22.80;36.12
23016;BME280;11674;52.428;13.584;2023-06-14T20:04:01;101478.94;;;22.71;36.55
23016;BME280;11674;52.428;13.584;2023-06-14T20:09:08;101477.88;;;22.63;36.41
23016;BME280;11674;52.428;13.584;2023-06-14T20:14:15;101474.94;;;22.60;36.43
23016;BME280;11674;52.428;13.584;2023-06-14T20:19:22;101489.69;;;22.65;36.79
23016;BME280;11674;52.428;13.584;2023-06-14T20:24:29;101493.53;;;22.61;36.75
23016;BME280;11674;52.428;13.584;2023-06-14T20:29:36;101483.75;;;22.58;36.98
23016;BME280;11674;52.428;13.584;2023-06-14T20:34:43;101489.31;;;22.55;36.96
23016;BME280;11674;52.428;13.584;2023-06-14T20:39:54;101492.38;;;22.50;37.29
23016;BME280;11674;52.428;13.584;2023-06-14T20:45:03;101490.25;;;22.47;37.39
23016;BME280;11674;52.428;13.584;2023-06-14T20:50:11;101491.16;;;22.39;37.44
23016;BME280;11674;52.428;13.584;2023-06-14T20:55:17;101493.16;;;22.38;37.46
23016;BME280;11674;52.428;13.584;2023-06-14T21:00:25;101494.19;;;22.34;37.59
23016;BME280;11674;52.428;13.584;2023-06-14T21:05:32;101490.56;;;22.33;37.88
23016;BME280;11674;52.428;13.584;2023-06-14T21:10:38;101493.41;;;22.33;37.69
23016;BME280;11674;52.428;13.584;2023-06-14T21:15:45;101493.28;;;22.30;37.94
23016;BME280;11674;52.428;13.584;2023-06-14T21:20:52;101493.84;;;22.35;37.84
23016;BME280;11674;52.428;13.584;2023-06-14T21:25:59;101494.09;;;22.30;38.08
23016;BME280;11674;52.428;13.584;2023-06-14T21:31:07;101489.03;;;22.24;38.18
23016;BME280;11674;52.428;13.584;2023-06-14T21:36:14;101494.06;;;22.18;38.30
23016;BME280;11674;52.428;13.584;2023-06-14T21:41:21;101477.00;;;22.15;38.19
23016;BME280;11674;52.428;13.584;2023-06-14T21:46:29;101484.50;;;22.11;38.26
23016;BME280;11674;52.428;13.584;2023-06-14T21:51:36;101479.06;;;22.06;38.29
23016;BME280;11674;52.428;13.584;2023-06-14T21:56:43;101489.66;;;21.97;38.86
23016;BME280;11674;52.428;13.584;2023-06-14T22:01:50;101478.81;;;21.87;38.83
23016;BME280;11674;52.428;13.584;2023-06-14T22:06:57;101477.59;;;21.76;39.10
23016;BME280;11674;52.428;13.584;2023-06-14T22:12:05;101475.97;;;21.66;39.20
23016;BME280;11674;52.428;13.584;2023-06-14T22:17:12;101479.00;;;21.61;39.49
23016;BME280;11674;52.428;13.584;2023-06-14T22:22:20;101469.09;;;21.55;39.54
23016;BME280;11674;52.428;13.584;2023-06-14T22:27:33;101466.16;;;21.52;39.59
23016;BME280;11674;52.428;13.584;2023-06-14T22:32:44;101469.66;;;21.49;40.11
23016;BME280;11674;52.428;13.584;2023-06-14T22:37:50;101468.94;;;21.40;39.99
23016;BME280;11674;52.428;13.584;2023-06-14T22:42:57;101472.16;;;21.30;40.24
23016;BME280;11674;52.428;13.584;2023-06-14T22:48:04;101474.22;;;21.21;40.06
23016;BME280;11674;52.428;13.584;2023-06-14T22:53:11;101469.97;;;21.15;40.64
23016;BME280;11674;52.428;13.584;2023-06-14T22:58:18;101465.22;;;21.07;40.66
23016;BME280;11674;52.428;13.584;2023-06-14T23:03:26;101468.25;;;21.02;40.78
23016;BME280;11674;52.428;13.584;2023-06-14T23:08:33;101468.94;;;20.99;41.13
23016;BME280;11674;52.428;13.584;2023-06-14T23:13:40;101473.72;;;20.98;40.99
23016;BME280;11674;52.428;13.584;2023-06-14T23:18:48;101460.94;;;21.01;41.22
23016;BME280;11674;52.428;13.584;2023-06-14T23:23:54;101462.81;;;20.97;40.98
23016;BME280;11674;52.428;13.584;2023-06-14T23:29:01;101460.53;;;20.90;41.50
23016;BME280;11674;52.428;13.584;2023-06-14T23:34:08;101464.03;;;20.79;41.40
23016;BME280;11674;52.428;13.584;2023-06-14T23:39:15;101464.25;;;20.74;41.73
23016;BME280;11674;52.428;13.584;2023-06-14T23:44:22;101457.84;;;20.65;41.72
23016;BME280;11674;52.428;13.584;2023-06-14T23:49:29;101465.03;;;20.54;41.80
23016;BME280;11674;52.428;13.584;2023-06-14T23:54:36;101466.56;;;20.51;41.91
23016;BME280;11674;52.428;13.584;2023-06-14T23:59:44;101461.91;;;20.47;42.22
